Aviation Digital Data Service (ADDS)

Output produced by METARs form (1049 UTC 19 June 2019)
found at http://www.aviationweather.gov/metar/data/
 
KEAR 190905Z 1909/2006 VRB05KT 4SM BR BKN004 
     TEMPO 1909/1911 1/4SM FG BKN002 
     FM191100 VRB04KT 2SM BR BKN007 
     FM191500 VRB04KT 6SM BR BKN015 
     FM191900 VRB03KT P6SM SCT030 
     FM200200 15006KT P6SM FEW050
       
KEAT 190818Z 1908/2006 30008G15KT P6SM FEW250 
     FM191700 30023G30KT P6SM SKC 
     FM192300 30028G34KT P6SM SKC 
     FM200400 30018G24KT P6SM FEW150
       
KEAU 191018Z 1910/2006 03003KT 1/2SM FG SKC 
     TEMPO 1910/1912 1SM BR 
     FM191300 05005KT P6SM FEW250 
     FM191500 06005KT P6SM SCT050 SCT250
       
KECG 190549Z 1906/2006 20008KT P6SM SCT040 BKN120 
     FM191000 19006KT P6SM BKN050 
     FM191800 19007KT 6SM -SHRA OVC050 
     FM200200 22006KT P6SM BKN080
       
TAF KEDW 191001Z 1910/2016 22009KT 9999 SKC QNH2988INS 
     BECMG 1917/1918 24012KT 9999 FEW240 QNH2992INS 
     BECMG 1920/1921 24015G25KT 9999 FEW220 510009 QNH2987INS 
     BECMG 2002/2003 24012KT 9999 SKC QNH2987INS TX38/1921Z TN17/1912Z
       
KEED 190520Z 1906/2006 23008KT P6SM SKC 
     FM191100 18005KT P6SM SKC 
     FM191600 18011G20KT P6SM SKC 
     FM200400 21009KT P6SM SKC
       
KEET 190848Z 1909/2006 19005KT P6SM VCTS SCT015 BKN035CB 
     TEMPO 1909/1910 2SM TSRA BKN015CB 
     FM191000 19003KT P6SM OVC015 
     FM191400 25007KT P6SM BKN025 
     FM191600 25009KT P6SM SCT020 BKN040 
     FM192300 23007KT P6SM SCT050
       
TAF KEFD 190400Z 1904/2010 19009KT 9999 SCT040 SCT250 QNH2983INS 
     BECMG 1913/1914 21010G15KT 9999 SKC QNH2974INS 
     BECMG 2003/2004 19009KT 9999 SCT015 QNH2981INS 
     BECMG 2006/2007 19009KT 9999 BKN010 QNH2977INS TX34/1920Z TN24/1909Z
       
KEGE 190520Z 1906/2006 15003KT P6SM VCSH FEW050 BKN080 
     FM191000 VRB03KT P6SM FEW050 SCT100 
     FM192000 26013G22KT P6SM FEW070 FEW150 
     FM200300 23007KT P6SM FEW090 FEW200
       
TAF KEGI 190900Z 1909/2015 16003KT 8000 -SHRA VCTS BKN018CB QNH2989INS 
     BECMG 1910/1911 26003KT 9999 NSW SCT020 QNH2990INS 
     BECMG 1912/1913 26006KT 9999 SCT030 QNH2984INS 
     BECMG 1919/1920 23010G15KT 9999 FEW040 QNH2983INS 
     BECMG 2001/2001 23007KT 9999 FEW025 QNH2985INS 
     BECMG 2004/2005 23009KT 9999 BKN018 QNH2985INS 
     BECMG 2011/2012 25012G18KT 9999 SCT025 QNH2991INS TX31/1919Z TN24/1910Z
LAST NO AMDS AFT 1909 NEXT 1913
       
KEKN 190830Z 1909/2006 VRB03KT P6SM OVC050 
     FM191400 VRB03KT P6SM VCTS BKN025CB 
     FM191700 24004KT P6SM -SHRA VCTS BKN035CB 
     FM192300 25004KT P6SM -SHRA BKN050 
     FM200300 VRB03KT 5SM BR BKN040
       
KZZV 190659Z 1907/2006 20003KT P6SM VCSH BKN015 
     TEMPO 1909/1912 5SM BR BKN005 
     FM191300 VRB02KT P6SM BKN050 
     FM191900 VRB02KT P6SM VCSH BKN035 
     FM200000 VRB03KT P6SM BKN120
       
KELP 190520Z 1906/2006 25010KT P6SM BKN250 
     FM192000 25014G23KT P6SM FEW100
       
KELY 190520Z 1906/2006 VRB06KT P6SM SKC 
     FM190800 18010KT P6SM SKC 
     FM191800 29015G25KT P6SM SKC 
     FM200300 32006KT P6SM SKC
       
KEKO 190520Z 1906/2006 VRB04KT P6SM SKC 
     FM191800 25010G20KT P6SM SKC 
     FM192100 29015G25KT P6SM SKC 
     FM200300 VRB06KT P6SM SKC
       
TAF KEND 191000Z 1910/2016 34006KT 8000 -RA FEW008 SCT030 BKN070 QNH2976INS 
     BECMG 1914/1915 33010KT 9999 NSW FEW025 SCT050 QNH2970INS 
     BECMG 2001/2002 VRB06KT 9999 FEW250 QNH2968INS 
     BECMG 2013/2014 18012KT 9999 SCT250 QNH2973INS TX28/1921Z TN18/1912Z
       
KENV 190520Z 1906/2006 33011KT P6SM FEW100 SCT200 
     FM191500 10009KT P6SM SCT250 
     FM191900 29015G22KT P6SM FEW080 SCT250 
     FM200400 35012G18KT P6SM SCT250
       
KENW 190825Z 1908/2006 00000KT P6SM BKN070 
     FM191100 00000KT P6SM -SHRA OVC016 
     FM191500 04005KT 5SM BR VCSH OVC008 
     FM192100 04009KT P6SM VCSH BKN020 
     FM200300 02007KT P6SM OVC035
       
KERI 191026Z 1910/2006 VRB02KT P6SM BKN025 BKN060 
     FM191200 36004KT P6SM OVC100 
     FM200000 05005KT P6SM OVC100 
     FM200300 09005KT P6SM OVC050
       
KEUG 190520Z 1906/2006 01005KT P6SM SKC 
     FM191500 35008KT P6SM SKC 
     FM191900 35012G18KT P6SM BKN250
       
KEUL 190520Z 1906/2006 31008KT P6SM SKC 
     FM191700 30015G25KT P6SM SKC
       
KEVV 190520Z 1906/2006 00000KT P6SM SCT050 BKN090 
     FM191500 22007KT P6SM VCSH SCT025 BKN090 
     FM192100 22010G16KT P6SM VCTS BKN035CB 
     FM200000 23008KT P6SM SCT040 BKN120 
     FM200300 21006KT P6SM BKN050
       
KEVW 190520Z 1906/2006 22009KT P6SM SCT200 
     FM191600 23015G22KT P6SM SCT200 
     FM192000 26020G35KT P6SM FEW080 SCT200 
     FM200300 28012G18KT P6SM SCT200
       
KEWN 190552Z 1906/2006 17004KT P6SM VCSH SCT010 BKN070 
     FM191100 21004KT P6SM VCSH SCT010 BKN025 
     FM191500 25006KT P6SM SCT030 BKN070 
     FM191700 24008G15KT 6SM -SHRA VCTS SCT030CB BKN070 
     FM200000 20008KT P6SM BKN040 
     FM200500 21007KT P6SM FEW010 SCT050
       
KEWR 190845Z 1909/2012 VRB04KT 2SM BR OVC004 
     TEMPO 1910/1912 1SM BR 
     FM191400 15005KT 4SM BR OVC006 
     FM191600 15007KT P6SM VCSH OVC010 
     FM191800 14009KT 5SM -SHRA BKN015 
     FM200000 14006KT 6SM BR VCSH OVC015 
     FM200300 14005KT 6SM BR OVC009
       
KEYW 190529Z 1906/2006 15009KT P6SM SCT025